sensor_id;sensor_type;location;lat;lon;timestamp;P1;durP1;ratioP1;P2;durP2;ratioP2
77870;SDS011;67067;46.850;7.578;2023-04-03T00:00:28;0.55;;;0.55;;
77870;SDS011;67067;46.850;7.578;2023-04-03T00:01:31;0.80;;;0.80;;
77870;SDS011;67067;46.850;7.578;2023-04-03T00:02:35;0.65;;;0.65;;
77870;SDS011;67067;46.850;7.578;2023-04-03T00:03:37;0.93;;;0.88;;
77870;SDS011;67067;46.850;7.578;2023-04-03T00:05:43;0.73;;;0.63;;
77870;SDS011;67067;46.850;7.578;2023-04-03T00:07:47;3.05;;;0.70;;
77870;SDS011;67067;46.850;7.578;2023-04-03T00:08:48;1.33;;;1.10;;
77870;SDS011;67067;46.850;7.578;2023-04-03T00:09:50;2.05;;;0.80;;
77870;SDS011;67067;46.850;7.578;2023-04-03T00:11:56;0.70;;;0.70;;
77870;SDS011;67067;46.850;7.578;2023-04-03T00:12:58;1.08;;;0.63;;
77870;SDS011;67067;46.850;7.578;2023-04-03T00:15:01;0.68;;;0.68;;
77870;SDS011;67067;46.850;7.578;2023-04-03T00:16:06;0.88;;;0.85;;
77870;SDS011;67067;46.850;7.578;2023-04-03T00:17:08;1.25;;;0.70;;
77870;SDS011;67067;46.850;7.578;2023-04-03T00:19:12;0.47;;;0.47;;
77870;SDS011;67067;46.850;7.578;2023-04-03T00:20:14;2.42;;;0.70;;
77870;SDS011;67067;46.850;7.578;2023-04-03T00:22:17;0.63;;;0.63;;
77870;SDS011;67067;46.850;7.578;2023-04-03T00:23:19;4.07;;;1.20;;
77870;SDS011;67067;46.850;7.578;2023-04-03T00:24:21;1.70;;;0.82;;
77870;SDS011;67067;46.850;7.578;2023-04-03T00:26:29;0.75;;;0.75;;
77870;SDS011;67067;46.850;7.578;2023-04-03T00:28:32;0.38;;;0.38;;
77870;SDS011;67067;46.850;7.578;2023-04-03T00:31:38;0.40;;;0.40;;
77870;SDS011;67067;46.850;7.578;2023-04-03T00:32:42;1.38;;;0.60;;
77870;SDS011;67067;46.850;7.578;2023-04-03T00:33:46;0.93;;;0.55;;
77870;SDS011;67067;46.850;7.578;2023-04-03T00:34:54;0.30;;;0.30;;
77870;SDS011;67067;46.850;7.578;2023-04-03T00:35:55;0.68;;;0.68;;
77870;SDS011;67067;46.850;7.578;2023-04-03T00:37:59;0.60;;;0.60;;
77870;SDS011;67067;46.850;7.578;2023-04-03T00:39:01;0.52;;;0.52;;
77870;SDS011;67067;46.850;7.578;2023-04-03T00:40:03;0.52;;;0.52;;
77870;SDS011;67067;46.850;7.578;2023-04-03T00:41:06;0.70;;;0.70;;
77870;SDS011;67067;46.850;7.578;2023-04-03T00:42:08;0.50;;;0.50;;
77870;SDS011;67067;46.850;7.578;2023-04-03T00:44:19;0.65;;;0.65;;
77870;SDS011;67067;46.850;7.578;2023-04-03T00:45:25;0.75;;;0.73;;
77870;SDS011;67067;46.850;7.578;2023-04-03T00:46:31;0.50;;;0.50;;
77870;SDS011;67067;46.850;7.578;2023-04-03T00:48:41;0.50;;;0.50;;
77870;SDS011;67067;46.850;7.578;2023-04-03T00:49:46;0.57;;;0.50;;
77870;SDS011;67067;46.850;7.578;2023-04-03T00:51:52;0.60;;;0.60;;
77870;SDS011;67067;46.850;7.578;2023-04-03T00:52:55;0.60;;;0.60;;
77870;SDS011;67067;46.850;7.578;2023-04-03T00:54:01;0.60;;;0.60;;
77870;SDS011;67067;46.850;7.578;2023-04-03T00:55:08;1.70;;;0.60;;
77870;SDS011;67067;46.850;7.578;2023-04-03T00:56:12;0.70;;;0.70;;
77870;SDS011;67067;46.850;7.578;2023-04-03T00:57:15;0.60;;;0.60;;
77870;SDS011;67067;46.850;7.578;2023-04-03T00:58:19;1.77;;;0.50;;
77870;SDS011;67067;46.850;7.578;2023-04-03T00:59:25;0.60;;;0.52;;
77870;SDS011;67067;46.850;7.578;2023-04-03T01:00:31;0.73;;;0.73;;
77870;SDS011;67067;46.850;7.578;2023-04-03T01:01:33;1.80;;;0.93;;
77870;SDS011;67067;46.850;7.578;2023-04-03T01:02:36;1.00;;;0.80;;
77870;SDS011;67067;46.850;7.578;2023-04-03T01:03:39;0.43;;;0.43;;
77870;SDS011;67067;46.850;7.578;2023-04-03T01:04:42;0.43;;;0.43;;
77870;SDS011;67067;46.850;7.578;2023-04-03T01:05:44;1.25;;;0.40;;
77870;SDS011;67067;46.850;7.578;2023-04-03T01:07:50;2.17;;;0.73;;
77870;SDS011;67067;46.850;7.578;2023-04-03T01:08:54;2.00;;;0.50;;
77870;SDS011;67067;46.850;7.578;2023-04-03T01:09:58;0.70;;;0.70;;
77870;SDS011;67067;46.850;7.578;2023-04-03T01:11:02;0.75;;;0.75;;
77870;SDS011;67067;46.850;7.578;2023-04-03T01:12:17;0.65;;;0.60;;
77870;SDS011;67067;46.850;7.578;2023-04-03T01:13:23;1.73;;;0.63;;
77870;SDS011;67067;46.850;7.578;2023-04-03T01:14:27;0.82;;;0.63;;
77870;SDS011;67067;46.850;7.578;2023-04-03T01:16:36;0.88;;;0.85;;
77870;SDS011;67067;46.850;7.578;2023-04-03T01:18:39;0.45;;;0.43;;
77870;SDS011;67067;46.850;7.578;2023-04-03T01:19:42;0.60;;;0.60;;
77870;SDS011;67067;46.850;7.578;2023-04-03T01:22:26;0.45;;;0.45;;
77870;SDS011;67067;46.850;7.578;2023-04-03T01:23:42;0.40;;;0.40;;
77870;SDS011;67067;46.850;7.578;2023-04-03T01:24:56;0.28;;;0.28;;
77870;SDS011;67067;46.850;7.578;2023-04-03T01:25:57;0.70;;;0.70;;
77870;SDS011;67067;46.850;7.578;2023-04-03T01:27:00;0.70;;;0.70;;
77870;SDS011;67067;46.850;7.578;2023-04-03T01:28:10;0.65;;;0.63;;
77870;SDS011;67067;46.850;7.578;2023-04-03T01:29:17;0.50;;;0.50;;
77870;SDS011;67067;46.850;7.578;2023-04-03T01:32:29;0.40;;;0.40;;
77870;SDS011;67067;46.850;7.578;2023-04-03T01:34:33;0.40;;;0.40;;
77870;SDS011;67067;46.850;7.578;2023-04-03T01:35:35;0.50;;;0.50;;
77870;SDS011;67067;46.850;7.578;2023-04-03T01:37:39;1.05;;;0.50;;
77870;SDS011;67067;46.850;7.578;2023-04-03T01:38:40;1.17;;;0.77;;
77870;SDS011;67067;46.850;7.578;2023-04-03T01:40:47;0.80;;;0.80;;
77870;SDS011;67067;46.850;7.578;2023-04-03T01:41:49;0.75;;;0.75;;
77870;SDS011;67067;46.850;7.578;2023-04-03T01:43:02;2.87;;;0.97;;
77870;SDS011;67067;46.850;7.578;2023-04-03T01:44:04;0.70;;;0.70;;
77870;SDS011;67067;46.850;7.578;2023-04-03T01:45:08;0.43;;;0.43;;
77870;SDS011;67067;46.850;7.578;2023-04-03T01:46:11;0.60;;;0.57;;
77870;SDS011;67067;46.850;7.578;2023-04-03T01:48:15;0.70;;;0.70;;
77870;SDS011;67067;46.850;7.578;2023-04-03T01:49:17;1.15;;;0.82;;
77870;SDS011;67067;46.850;7.578;2023-04-03T01:51:21;1.70;;;1.35;;
77870;SDS011;67067;46.850;7.578;2023-04-03T01:52:23;0.82;;;0.82;;
77870;SDS011;67067;46.850;7.578;2023-04-03T01:53:25;2.25;;;0.90;;
77870;SDS011;67067;46.850;7.578;2023-04-03T01:54:27;1.10;;;1.00;;
77870;SDS011;67067;46.850;7.578;2023-04-03T01:56:31;0.98;;;0.98;;
77870;SDS011;67067;46.850;7.578;2023-04-03T01:58:34;5.43;;;1.13;;
77870;SDS011;67067;46.850;7.578;2023-04-03T01:59:36;0.80;;;0.80;;
77870;SDS011;67067;46.850;7.578;2023-04-03T02:01:39;2.08;;;0.95;;
77870;SDS011;67067;46.850;7.578;2023-04-03T02:02:41;0.80;;;0.80;;
77870;SDS011;67067;46.850;7.578;2023-04-03T02:03:45;1.88;;;1.23;;
77870;SDS011;67067;46.850;7.578;2023-04-03T02:05:49;0.90;;;0.90;;
77870;SDS011;67067;46.850;7.578;2023-04-03T02:06:53;1.75;;;1.02;;
77870;SDS011;67067;46.850;7.578;2023-04-03T02:07:55;0.82;;;0.82;;
77870;SDS011;67067;46.850;7.578;2023-04-03T02:08:57;0.57;;;0.57;;
77870;SDS011;67067;46.850;7.578;2023-04-03T02:10:04;0.60;;;0.60;;
77870;SDS011;67067;46.850;7.578;2023-04-03T02:11:06;0.60;;;0.60;;
77870;SDS011;67067;46.850;7.578;2023-04-03T02:13:09;0.65;;;0.50;;
77870;SDS011;67067;46.850;7.578;2023-04-03T02:14:11;0.60;;;0.60;;
77870;SDS011;67067;46.850;7.578;2023-04-03T02:15:13;0.65;;;0.65;;
77870;SDS011;67067;46.850;7.578;2023-04-03T02:16:15;0.52;;;0.52;;
77870;SDS011;67067;46.850;7.578;2023-04-03T02:17:17;0.45;;;0.45;;
77870;SDS011;67067;46.850;7.578;2023-04-03T02:18:19;0.70;;;0.70;;
77870;SDS011;67067;46.850;7.578;2023-04-03T02:19:23;0.70;;;0.70;;
77870;SDS011;67067;46.850;7.578;2023-04-03T02:20:27;0.73;;;0.73;;
77870;SDS011;67067;46.850;7.578;2023-04-03T02:21:29;0.77;;;0.63;;
77870;SDS011;67067;46.850;7.578;2023-04-03T02:22:34;1.40;;;0.80;;
77870;SDS011;67067;46.850;7.578;2023-04-03T02:24:38;1.23;;;0.80;;
77870;SDS011;67067;46.850;7.578;2023-04-03T02:25:41;1.25;;;0.73;;
77870;SDS011;67067;46.850;7.578;2023-04-03T02:27:45;0.70;;;0.70;;
77870;SDS011;67067;46.850;7.578;2023-04-03T02:28:47;1.08;;;0.88;;
77870;SDS011;67067;46.850;7.578;2023-04-03T02:29:49;1.15;;;0.80;;
77870;SDS011;67067;46.850;7.578;2023-04-03T02:30:51;0.70;;;0.70;;
77870;SDS011;67067;46.850;7.578;2023-04-03T02:32:56;0.88;;;0.80;;
77870;SDS011;67067;46.850;7.578;2023-04-03T02:33:59;0.68;;;0.68;;
77870;SDS011;67067;46.850;7.578;2023-04-03T02:35:01;1.08;;;0.93;;
77870;SDS011;67067;46.850;7.578;2023-04-03T02:37:06;0.82;;;0.82;;
77870;SDS011;67067;46.850;7.578;2023-04-03T02:39:09;0.93;;;0.93;;
77870;SDS011;67067;46.850;7.578;2023-04-03T02:40:11;1.52;;;0.93;;
77870;SDS011;67067;46.850;7.578;2023-04-03T02:42:17;1.85;;;0.77;;
77870;SDS011;67067;46.850;7.578;2023-04-03T02:43:19;2.78;;;1.05;;
77870;SDS011;67067;46.850;7.578;2023-04-03T02:44:21;1.00;;;1.00;;
77870;SDS011;67067;46.850;7.578;2023-04-03T02:45:25;1.10;;;1.00;;
77870;SDS011;67067;46.850;7.578;2023-04-03T02:46:27;3.33;;;1.10;;
77870;SDS011;67067;46.850;7.578;2023-04-03T02:47:32;2.25;;;1.10;;
77870;SDS011;67067;46.850;7.578;2023-04-03T02:48:36;1.15;;;1.10;;
77870;SDS011;67067;46.850;7.578;2023-04-03T02:49:38;1.02;;;1.02;;
77870;SDS011;67067;46.850;7.578;2023-04-03T02:50:40;0.90;;;0.90;;
77870;SDS011;67067;46.850;7.578;2023-04-03T02:52:43;1.50;;;1.25;;
77870;SDS011;67067;46.850;7.578;2023-04-03T02:53:45;2.00;;;1.23;;
77870;SDS011;67067;46.850;7.578;2023-04-03T02:54:53;1.08;;;1.08;;
77870;SDS011;67067;46.850;7.578;2023-04-03T02:56:56;1.05;;;1.05;;
77870;SDS011;67067;46.850;7.578;2023-04-03T02:57:59;1.15;;;1.13;;
77870;SDS011;67067;46.850;7.578;2023-04-03T03:00:03;2.72;;;1.10;;
77870;SDS011;67067;46.850;7.578;2023-04-03T03:01:05;0.93;;;0.85;;
77870;SDS011;67067;46.850;7.578;2023-04-03T03:02:07;1.10;;;1.10;;
77870;SDS011;67067;46.850;7.578;2023-04-03T03:03:12;0.88;;;0.88;;
77870;SDS011;67067;46.850;7.578;2023-04-03T03:04:15;1.05;;;1.05;;
77870;SDS011;67067;46.850;7.578;2023-04-03T03:05:17;3.63;;;1.52;;
77870;SDS011;67067;46.850;7.578;2023-04-03T03:06:19;0.88;;;0.88;;
77870;SDS011;67067;46.850;7.578;2023-04-03T03:08:22;1.10;;;1.10;;
77870;SDS011;67067;46.850;7.578;2023-04-03T03:09:26;1.05;;;1.00;;
77870;SDS011;67067;46.850;7.578;2023-04-03T03:10:28;0.95;;;0.95;;
77870;SDS011;67067;46.850;7.578;2023-04-03T03:11:30;1.00;;;1.00;;
77870;SDS011;67067;46.850;7.578;2023-04-03T03:12:32;1.15;;;0.95;;
77870;SDS011;67067;46.850;7.578;2023-04-03T03:13:34;1.45;;;1.27;;
77870;SDS011;67067;46.850;7.578;2023-04-03T03:14:39;1.00;;;1.00;;
77870;SDS011;67067;46.850;7.578;2023-04-03T03:15:42;2.75;;;1.17;;
77870;SDS011;67067;46.850;7.578;2023-04-03T03:17:45;0.95;;;0.95;;
77870;SDS011;67067;46.850;7.578;2023-04-03T03:18:47;1.05;;;1.02;;
77870;SDS011;67067;46.850;7.578;2023-04-03T03:20:54;1.30;;;1.10;;
77870;SDS011;67067;46.850;7.578;2023-04-03T03:21:57;1.02;;;1.02;;
77870;SDS011;67067;46.850;7.578;2023-04-03T03:23:01;0.93;;;0.93;;
77870;SDS011;67067;46.850;7.578;2023-04-03T03:24:03;1.67;;;1.20;;
77870;SDS011;67067;46.850;7.578;2023-04-03T03:25:06;1.50;;;1.40;;
77870;SDS011;67067;46.850;7.578;2023-04-03T03:26:09;1.67;;;1.58;;
77870;SDS011;67067;46.850;7.578;2023-04-03T03:27:12;1.50;;;1.40;;
77870;SDS011;67067;46.850;7.578;2023-04-03T03:29:16;2.75;;;1.05;;
77870;SDS011;67067;46.850;7.578;2023-04-03T03:30:18;1.33;;;1.23;;
77870;SDS011;67067;46.850;7.578;2023-04-03T03:31:20;1.40;;;1.30;;
77870;SDS011;67067;46.850;7.578;2023-04-03T03:32:22;1.75;;;1.33;;
77870;SDS011;67067;46.850;7.578;2023-04-03T03:35:27;1.10;;;1.10;;
77870;SDS011;67067;46.850;7.578;2023-04-03T03:37:31;1.33;;;1.23;;
77870;SDS011;67067;46.850;7.578;2023-04-03T03:39:36;2.17;;;1.55;;
77870;SDS011;67067;46.850;7.578;2023-04-03T03:41:39;1.80;;;1.70;;
77870;SDS011;67067;46.850;7.578;2023-04-03T03:42:41;1.70;;;1.55;;
77870;SDS011;67067;46.850;7.578;2023-04-03T03:44:48;1.80;;;1.70;;
77870;SDS011;67067;46.850;7.578;2023-04-03T03:46:52;1.67;;;1.58;;
77870;SDS011;67067;46.850;7.578;2023-04-03T03:47:55;1.50;;;1.40;;
77870;SDS011;67067;46.850;7.578;2023-04-03T03:48:57;2.05;;;1.95;;
77870;SDS011;67067;46.850;7.578;2023-04-03T03:49:58;1.73;;;1.63;;
77870;SDS011;67067;46.850;7.578;2023-04-03T03:51:00;1.67;;;1.58;;
77870;SDS011;67067;46.850;7.578;2023-04-03T03:52:05;2.50;;;2.30;;
77870;SDS011;67067;46.850;7.578;2023-04-03T03:53:08;2.40;;;2.20;;
77870;SDS011;67067;46.850;7.578;2023-04-03T03:54:09;2.80;;;2.60;;
77870;SDS011;67067;46.850;7.578;2023-04-03T03:55:12;2.75;;;2.30;;
77870;SDS011;67067;46.850;7.578;2023-04-03T03:56:14;3.15;;;2.50;;
77870;SDS011;67067;46.850;7.578;2023-04-03T03:57:16;2.45;;;2.25;;
77870;SDS011;67067;46.850;7.578;2023-04-03T03:59:19;3.20;;;2.90;;
77870;SDS011;67067;46.850;7.578;2023-04-03T04:00:23;2.67;;;2.45;;
77870;SDS011;67067;46.850;7.578;2023-04-03T04:01:29;3.08;;;2.78;;
77870;SDS011;67067;46.850;7.578;2023-04-03T04:02:31;3.53;;;3.10;;
77870;SDS011;67067;46.850;7.578;2023-04-03T04:03:33;3.15;;;2.85;;
77870;SDS011;67067;46.850;7.578;2023-04-03T04:04:36;6.30;;;3.45;;
77870;SDS011;67067;46.850;7.578;2023-04-03T04:05:43;4.03;;;3.33;;
77870;SDS011;67067;46.850;7.578;2023-04-03T04:06:47;4.80;;;3.88;;
77870;SDS011;67067;46.850;7.578;2023-04-03T04:08:52;5.45;;;3.70;;
77870;SDS011;67067;46.850;7.578;2023-04-03T04:09:53;4.57;;;3.75;;
77870;SDS011;67067;46.850;7.578;2023-04-03T04:10:58;4.07;;;3.58;;
77870;SDS011;67067;46.850;7.578;2023-04-03T04:12:00;5.45;;;4.00;;
77870;SDS011;67067;46.850;7.578;2023-04-03T04:13:03;4.95;;;3.85;;
77870;SDS011;67067;46.850;7.578;2023-04-03T04:15:08;4.97;;;3.88;;
77870;SDS011;67067;46.850;7.578;2023-04-03T04:16:10;6.45;;;4.25;;
77870;SDS011;67067;46.850;7.578;2023-04-03T04:17:13;6.78;;;4.78;;
77870;SDS011;67067;46.850;7.578;2023-04-03T04:18:15;6.63;;;4.45;;
77870;SDS011;67067;46.850;7.578;2023-04-03T04:19:21;4.38;;;3.83;;
77870;SDS011;67067;46.850;7.578;2023-04-03T04:20:23;5.57;;;4.25;;
77870;SDS011;67067;46.850;7.578;2023-04-03T04:22:28;4.95;;;4.10;;
77870;SDS011;67067;46.850;7.578;2023-04-03T04:23:29;4.75;;;4.20;;
77870;SDS011;67067;46.850;7.578;2023-04-03T04:24:32;6.20;;;4.53;;
77870;SDS011;67067;46.850;7.578;2023-04-03T04:25:35;4.60;;;3.83;;
77870;SDS011;67067;46.850;7.578;2023-04-03T04:26:39;5.45;;;4.13;;
77870;SDS011;67067;46.850;7.578;2023-04-03T04:27:44;4.97;;;3.75;;
77870;SDS011;67067;46.850;7.578;2023-04-03T04:28:48;6.20;;;4.18;;
77870;SDS011;67067;46.850;7.578;2023-04-03T04:29:51;4.28;;;3.80;;
77870;SDS011;67067;46.850;7.578;2023-04-03T04:32:28;4.40;;;3.78;;
77870;SDS011;67067;46.850;7.578;2023-04-03T04:33:30;4.85;;;3.90;;
77870;SDS011;67067;46.850;7.578;2023-04-03T04:34:34;4.85;;;3.60;;
77870;SDS011;67067;46.850;7.578;2023-04-03T04:35:36;6.95;;;3.55;;
77870;SDS011;67067;46.850;7.578;2023-04-03T04:36:39;8.77;;;4.20;;
77870;SDS011;67067;46.850;7.578;2023-04-03T04:37:43;5.60;;;4.35;;
77870;SDS011;67067;46.850;7.578;2023-04-03T04:38:46;8.05;;;4.82;;
77870;SDS011;67067;46.850;7.578;2023-04-03T04:39:48;7.00;;;4.70;;
77870;SDS011;67067;46.850;7.578;2023-04-03T04:40:50;8.68;;;5.10;;
77870;SDS011;67067;46.850;7.578;2023-04-03T04:41:52;7.40;;;5.30;;
77870;SDS011;67067;46.850;7.578;2023-04-03T04:42:54;12.10;;;6.13;;
77870;SDS011;67067;46.850;7.578;2023-04-03T04:43:56;9.10;;;5.60;;
77870;SDS011;67067;46.850;7.578;2023-04-03T04:44:59;8.18;;;5.70;;
77870;SDS011;67067;46.850;7.578;2023-04-03T04:46:03;7.47;;;5.28;;
77870;SDS011;67067;46.850;7.578;2023-04-03T04:47:10;9.00;;;5.63;;
77870;SDS011;67067;46.850;7.578;2023-04-03T04:49:13;8.45;;;5.60;;
77870;SDS011;67067;46.850;7.578;2023-04-03T04:51:18;9.10;;;5.60;;
77870;SDS011;67067;46.850;7.578;2023-04-03T04:52:20;10.68;;;5.53;;
77870;SDS011;67067;46.850;7.578;2023-04-03T04:53:21;5.40;;;4.05;;
77870;SDS011;67067;46.850;7.578;2023-04-03T04:54:23;6.50;;;4.93;;
77870;SDS011;67067;46.850;7.578;2023-04-03T04:55:30;6.32;;;4.63;;
77870;SDS011;67067;46.850;7.578;2023-04-03T04:56:32;5.78;;;4.22;;
77870;SDS011;67067;46.850;7.578;2023-04-03T04:57:34;6.97;;;4.05;;
77870;SDS011;67067;46.850;7.578;2023-04-03T04:58:37;4.50;;;3.70;;
77870;SDS011;67067;46.850;7.578;2023-04-03T04:59:39;3.97;;;3.58;;
77870;SDS011;67067;46.850;7.578;2023-04-03T05:00:41;4.20;;;3.80;;
77870;SDS011;67067;46.850;7.578;2023-04-03T05:01:46;5.68;;;4.47;;
77870;SDS011;67067;46.850;7.578;2023-04-03T05:02:50;5.03;;;4.00;;
77870;SDS011;67067;46.850;7.578;2023-04-03T05:03:53;4.25;;;3.85;;
77870;SDS011;67067;46.850;7.578;2023-04-03T05:04:56;3.65;;;3.35;;
77870;SDS011;67067;46.850;7.578;2023-04-03T05:06:03;3.75;;;3.35;;
77870;SDS011;67067;46.850;7.578;2023-04-03T05:07:07;3.88;;;3.47;;
77870;SDS011;67067;46.850;7.578;2023-04-03T05:08:12;3.97;;;3.45;;
77870;SDS011;67067;46.850;7.578;2023-04-03T05:09:16;3.47;;;3.17;;
77870;SDS011;67067;46.850;7.578;2023-04-03T05:10:20;3.75;;;3.40;;
77870;SDS011;67067;46.850;7.578;2023-04-03T05:12:26;5.18;;;3.90;;
77870;SDS011;67067;46.850;7.578;2023-04-03T05:13:35;5.63;;;4.07;;
77870;SDS011;67067;46.850;7.578;2023-04-03T05:14:37;5.10;;;3.70;;
77870;SDS011;67067;46.850;7.578;2023-04-03T05:15:41;8.23;;;4.70;;
77870;SDS011;67067;46.850;7.578;2023-04-03T05:16:45;7.03;;;4.68;;
77870;SDS011;67067;46.850;7.578;2023-04-03T05:17:53;6.28;;;4.50;;
77870;SDS011;67067;46.850;7.578;2023-04-03T05:18:55;7.07;;;4.40;;
77870;SDS011;67067;46.850;7.578;2023-04-03T05:20:00;7.20;;;5.00;;
77870;SDS011;67067;46.850;7.578;2023-04-03T05:21:02;6.18;;;4.63;;
77870;SDS011;67067;46.850;7.578;2023-04-03T05:22:04;7.53;;;4.63;;
77870;SDS011;67067;46.850;7.578;2023-04-03T05:24:09;7.95;;;4.75;;
77870;SDS011;67067;46.850;7.578;2023-04-03T05:25:14;7.35;;;5.25;;
77870;SDS011;67067;46.850;7.578;2023-04-03T05:26:19;8.15;;;5.22;;
77870;SDS011;67067;46.850;7.578;2023-04-03T05:27:23;8.63;;;5.70;;
77870;SDS011;67067;46.850;7.578;2023-04-03T05:28:28;11.52;;;5.63;;
77870;SDS011;67067;46.850;7.578;2023-04-03T05:29:30;9.23;;;5.82;;
77870;SDS011;67067;46.850;7.578;2023-04-03T05:30:33;8.57;;;5.55;;
77870;SDS011;67067;46.850;7.578;2023-04-03T05:31:36;8.18;;;5.35;;
77870;SDS011;67067;46.850;7.578;2023-04-03T05:32:41;10.25;;;5.72;;
77870;SDS011;67067;46.850;7.578;2023-04-03T05:34:07;8.02;;;5.53;;
77870;SDS011;67067;46.850;7.578;2023-04-03T05:35:10;7.15;;;4.90;;
77870;SDS011;67067;46.850;7.578;2023-04-03T05:36:14;7.22;;;5.25;;
77870;SDS011;67067;46.850;7.578;2023-04-03T05:37:19;7.70;;;5.07;;
77870;SDS011;67067;46.850;7.578;2023-04-03T05:38:22;6.60;;;5.10;;
77870;SDS011;67067;46.850;7.578;2023-04-03T05:39:25;8.25;;;4.95;;
77870;SDS011;67067;46.850;7.578;2023-04-03T05:41:30;9.05;;;4.85;;
77870;SDS011;67067;46.850;7.578;2023-04-03T05:42:32;6.35;;;4.70;;
77870;SDS011;67067;46.850;7.578;2023-04-03T05:43:34;7.47;;;5.40;;
77870;SDS011;67067;46.850;7.578;2023-04-03T05:44:39;7.63;;;5.38;;
77870;SDS011;67067;46.850;7.578;2023-04-03T05:45:42;7.68;;;5.07;;
77870;SDS011;67067;46.850;7.578;2023-04-03T05:46:47;9.60;;;5.28;;
77870;SDS011;67067;46.850;7.578;2023-04-03T05:47:49;7.15;;;4.80;;
77870;SDS011;67067;46.850;7.578;2023-04-03T05:49:55;7.43;;;4.95;;
77870;SDS011;67067;46.850;7.578;2023-04-03T05:50:57;8.30;;;5.35;;
77870;SDS011;67067;46.850;7.578;2023-04-03T05:52:00;6.72;;;5.18;;
77870;SDS011;67067;46.850;7.578;2023-04-03T05:53:04;7.80;;;5.32;;
77870;SDS011;67067;46.850;7.578;2023-04-03T05:54:09;8.10;;;5.45;;
77870;SDS011;67067;46.850;7.578;2023-04-03T05:55:15;9.07;;;5.72;;
77870;SDS011;67067;46.850;7.578;2023-04-03T05:56:18;6.18;;;5.05;;
77870;SDS011;67067;46.850;7.578;2023-04-03T05:58:24;7.43;;;5.43;;
77870;SDS011;67067;46.850;7.578;2023-04-03T05:59:31;8.63;;;5.13;;
77870;SDS011;67067;46.850;7.578;2023-04-03T06:00:35;8.48;;;5.57;;
77870;SDS011;67067;46.850;7.578;2023-04-03T06:01:37;7.63;;;5.30;;
77870;SDS011;67067;46.850;7.578;2023-04-03T06:02:39;6.93;;;5.50;;
77870;SDS011;67067;46.850;7.578;2023-04-03T06:03:48;9.93;;;5.90;;
77870;SDS011;67067;46.850;7.578;2023-04-03T06:04:53;9.40;;;5.80;;
77870;SDS011;67067;46.850;7.578;2023-04-03T06:05:57;9.38;;;6.00;;
77870;SDS011;67067;46.850;7.578;2023-04-03T06:08:00;10.18;;;5.88;;
77870;SDS011;67067;46.850;7.578;2023-04-03T06:09:02;8.20;;;5.43;;
77870;SDS011;67067;46.850;7.578;2023-04-03T06:10:08;7.05;;;5.30;;
77870;SDS011;67067;46.850;7.578;2023-04-03T06:11:12;8.70;;;5.63;;
77870;SDS011;67067;46.850;7.578;2023-04-03T06:12:14;7.13;;;5.32;;
77870;SDS011;67067;46.850;7.578;2023-04-03T06:13:16;10.00;;;5.93;;
77870;SDS011;67067;46.850;7.578;2023-04-03T06:14:18;9.30;;;5.68;;
77870;SDS011;67067;46.850;7.578;2023-04-03T06:15:23;7.60;;;5.50;;
77870;SDS011;67067;46.850;7.578;2023-04-03T06:16:24;10.30;;;5.97;;
77870;SDS011;67067;46.850;7.578;2023-04-03T06:18:30;9.75;;;6.18;;
77870;SDS011;67067;46.850;7.578;2023-04-03T06:19:32;9.65;;;6.32;;
77870;SDS011;67067;46.850;7.578;2023-04-03T06:20:34;13.45;;;6.60;;
77870;SDS011;67067;46.850;7.578;2023-04-03T06:21:36;12.02;;;6.28;;
77870;SDS011;67067;46.850;7.578;2023-04-03T06:22:40;13.38;;;6.75;;
77870;SDS011;67067;46.850;7.578;2023-04-03T06:23:45;13.80;;;8.32;;
77870;SDS011;67067;46.850;7.578;2023-04-03T06:24:47;15.60;;;8.75;;
77870;SDS011;67067;46.850;7.578;2023-04-03T06:25:49;12.65;;;7.65;;
77870;SDS011;67067;46.850;7.578;2023-04-03T06:26:53;15.60;;;8.38;;
77870;SDS011;67067;46.850;7.578;2023-04-03T06:28:59;11.10;;;6.22;;
77870;SDS011;67067;46.850;7.578;2023-04-03T06:30:01;13.23;;;7.22;;
77870;SDS011;67067;46.850;7.578;2023-04-03T06:31:03;13.63;;;7.20;;
77870;SDS011;67067;46.850;7.578;2023-04-03T06:33:07;18.73;;;9.15;;
77870;SDS011;67067;46.850;7.578;2023-04-03T06:34:09;8.93;;;5.50;;
77870;SDS011;67067;46.850;7.578;2023-04-03T06:35:12;6.32;;;4.60;;
77870;SDS011;67067;46.850;7.578;2023-04-03T06:37:16;8.48;;;5.47;;
77870;SDS011;67067;46.850;7.578;2023-04-03T06:38:22;7.63;;;5.15;;
77870;SDS011;67067;46.850;7.578;2023-04-03T06:39:24;4.68;;;3.97;;
77870;SDS011;67067;46.850;7.578;2023-04-03T06:41:28;6.32;;;4.00;;
77870;SDS011;67067;46.850;7.578;2023-04-03T06:42:29;3.80;;;3.40;;
77870;SDS011;67067;46.850;7.578;2023-04-03T06:43:42;10.40;;;6.10;;
77870;SDS011;67067;46.850;7.578;2023-04-03T06:44:44;12.15;;;5.80;;
77870;SDS011;67067;46.850;7.578;2023-04-03T06:45:46;9.07;;;4.82;;
77870;SDS011;67067;46.850;7.578;2023-04-03T06:46:48;7.28;;;5.05;;
77870;SDS011;67067;46.850;7.578;2023-04-03T06:47:50;18.83;;;9.43;;
77870;SDS011;67067;46.850;7.578;2023-04-03T06:49:54;8.02;;;4.85;;
77870;SDS011;67067;46.850;7.578;2023-04-03T06:50:56;6.95;;;5.32;;
77870;SDS011;67067;46.850;7.578;2023-04-03T06:53:02;19.20;;;9.20;;
77870;SDS011;67067;46.850;7.578;2023-04-03T06:54:05;19.33;;;10.40;;
77870;SDS011;67067;46.850;7.578;2023-04-03T06:55:09;11.63;;;6.45;;
77870;SDS011;67067;46.850;7.578;2023-04-03T06:56:11;9.27;;;5.88;;
77870;SDS011;67067;46.850;7.578;2023-04-03T06:57:13;10.15;;;5.88;;
77870;SDS011;67067;46.850;7.578;2023-04-03T06:58:16;8.23;;;5.70;;
77870;SDS011;67067;46.850;7.578;2023-04-03T06:59:20;11.07;;;6.60;;
77870;SDS011;67067;46.850;7.578;2023-04-03T07:01:24;8.57;;;6.10;;
77870;SDS011;67067;46.850;7.578;2023-04-03T07:02:29;8.88;;;5.90;;
77870;SDS011;67067;46.850;7.578;2023-04-03T07:04:34;7.55;;;5.25;;
77870;SDS011;67067;46.850;7.578;2023-04-03T07:05:37;10.05;;;6.25;;
77870;SDS011;67067;46.850;7.578;2023-04-03T07:06:39;8.98;;;6.07;;
77870;SDS011;67067;46.850;7.578;2023-04-03T07:07:41;8.23;;;5.78;;
77870;SDS011;67067;46.850;7.578;2023-04-03T07:09:47;7.53;;;5.75;;
77870;SDS011;67067;46.850;7.578;2023-04-03T07:10:49;7.30;;;5.63;;
77870;SDS011;67067;46.850;7.578;2023-04-03T07:11:51;8.60;;;6.00;;
77870;SDS011;67067;46.850;7.578;2023-04-03T07:13:57;8.95;;;5.80;;
77870;SDS011;67067;46.850;7.578;2023-04-03T07:16:00;8.32;;;5.65;;
77870;SDS011;67067;46.850;7.578;2023-04-03T07:17:03;7.72;;;5.78;;
77870;SDS011;67067;46.850;7.578;2023-04-03T07:18:05;7.97;;;5.80;;
77870;SDS011;67067;46.850;7.578;2023-04-03T07:19:07;7.13;;;5.57;;
77870;SDS011;67067;46.850;7.578;2023-04-03T07:20:10;7.43;;;5.53;;
77870;SDS011;67067;46.850;7.578;2023-04-03T07:21:12;8.85;;;6.13;;
77870;SDS011;67067;46.850;7.578;2023-04-03T07:22:14;8.70;;;5.90;;
77870;SDS011;67067;46.850;7.578;2023-04-03T07:24:18;9.02;;;6.28;;
77870;SDS011;67067;46.850;7.578;2023-04-03T07:25:20;8.68;;;5.72;;
77870;SDS011;67067;46.850;7.578;2023-04-03T07:26:24;9.07;;;6.03;;
77870;SDS011;67067;46.850;7.578;2023-04-03T07:27:26;7.40;;;5.57;;
77870;SDS011;67067;46.850;7.578;2023-04-03T07:30:35;9.60;;;5.95;;
77870;SDS011;67067;46.850;7.578;2023-04-03T07:31:43;10.38;;;5.88;;
77870;SDS011;67067;46.850;7.578;2023-04-03T07:32:46;8.43;;;5.55;;
77870;SDS011;67067;46.850;7.578;2023-04-03T07:34:49;9.45;;;6.18;;
77870;SDS011;67067;46.850;7.578;2023-04-03T07:36:53;8.97;;;5.80;;
77870;SDS011;67067;46.850;7.578;2023-04-03T07:37:54;8.25;;;5.85;;
77870;SDS011;67067;46.850;7.578;2023-04-03T07:40:00;7.50;;;5.32;;
77870;SDS011;67067;46.850;7.578;2023-04-03T07:41:04;7.57;;;5.60;;
77870;SDS011;67067;46.850;7.578;2023-04-03T07:42:07;7.78;;;5.68;;
77870;SDS011;67067;46.850;7.578;2023-04-03T07:43:14;8.95;;;6.00;;
77870;SDS011;67067;46.850;7.578;2023-04-03T07:44:17;6.97;;;5.00;;
77870;SDS011;67067;46.850;7.578;2023-04-03T07:45:19;8.90;;;5.90;;